createdAt,value
2022-08-05T00:02:17.113Z,93.58
2022-08-05T00:06:02.612Z,94.88
2022-08-05T00:08:35.475Z,95.58
2022-08-05T00:11:35.029Z,95.78
2022-08-05T00:14:38.367Z,95.98
2022-08-05T00:17:46.535Z,95.38
2022-08-05T00:20:52.085Z,96.48
2022-08-05T00:24:10.575Z,98.33
2022-08-05T00:27:10.459Z,99.93
2022-08-05T00:30:11.344Z,99.99
2022-08-05T00:34:55.586Z,99.99
2022-08-05T00:37:13.194Z,99.99
2022-08-05T00:39:36.933Z,99.99
2022-08-05T00:42:36.688Z,99.99
2022-08-05T00:45:46.027Z,99.99
2022-08-05T00:48:55.397Z,99.99
2022-08-05T00:52:04.988Z,99.99
2022-08-05T00:55:13.420Z,99.99
2022-08-05T00:58:27.238Z,99.99
2022-08-05T01:01:42.073Z,99.99
2022-08-05T01:04:30.205Z,99.99
2022-08-05T01:07:37.773Z,99.99
2022-08-05T01:10:51.512Z,99.99
2022-08-05T01:13:59.119Z,99.99
2022-08-05T01:16:53.836Z,99.99
2022-08-05T01:20:03.594Z,99.99
2022-08-05T01:23:15.045Z,99.99
2022-08-05T01:26:12.122Z,99.99
2022-08-05T01:29:22.931Z,99.99
2022-08-05T01:32:20.361Z,99.99
2022-08-05T01:35:52.148Z,99.99
2022-08-05T01:38:33.733Z,99.99
2022-08-05T01:41:44.440Z,99.99
2022-08-05T01:44:54.193Z,99.99
2022-08-05T01:48:02.397Z,99.99
2022-08-05T01:51:12.365Z,99.99
2022-08-05T01:54:25.566Z,99.99
2022-08-05T01:58:29.202Z,99.99
2022-08-05T02:00:30.989Z,99.99
2022-08-05T02:03:38.529Z,99.99
2022-08-05T02:06:48.013Z,99.99
2022-08-05T02:09:56.254Z,99.99
2022-08-05T02:13:04.882Z,99.99
2022-08-05T02:16:10.455Z,99.99
2022-08-05T02:19:13.697Z,99.99
2022-08-05T02:22:26.812Z,99.99
2022-08-05T02:25:23.958Z,99.99
2022-08-05T02:28:38.162Z,99.99
2022-08-05T02:31:35.438Z,99.99
2022-08-05T02:34:42.881Z,99.99
2022-08-05T02:37:53.919Z,99.99
2022-08-05T02:40:51.043Z,99.99
2022-08-05T02:44:02.711Z,99.99
2022-08-05T02:47:03.306Z,99.99
2022-08-05T02:50:11.791Z,99.99
2022-08-05T02:53:19.856Z,99.99
2022-08-05T02:56:27.848Z,99.99
2022-08-05T02:59:27.732Z,99.99
2022-08-05T03:02:35.718Z,99.99
2022-08-05T03:06:57.014Z,99.99
2022-08-05T03:08:48.302Z,99.99
2022-08-05T03:11:54.521Z,99.99
2022-08-05T03:14:54.094Z,99.99
2022-08-05T03:18:04.426Z,99.99
2022-08-05T03:21:04.767Z,99.99
2022-08-05T03:24:14.789Z,99.99
2022-08-05T03:27:23.212Z,99.99
2022-08-05T03:30:30.320Z,99.99
2022-08-05T03:33:42.328Z,99.99
2022-08-05T03:36:36.162Z,99.99
2022-08-05T03:39:47.390Z,99.99
2022-08-05T03:42:51.752Z,99.99
2022-08-05T03:46:00.120Z,99.99
2022-08-05T03:49:08.119Z,99.99
2022-08-05T03:52:38.382Z,99.99
2022-08-05T03:56:05.517Z,99.99
2022-08-05T03:58:28.900Z,99.99
2022-08-05T04:01:36.628Z,99.99
2022-08-05T04:04:44.878Z,99.99
2022-08-05T04:07:58.501Z,99.99
2022-08-05T04:10:55.821Z,99.99
2022-08-05T04:14:04.004Z,99.99
2022-08-05T04:17:11.705Z,99.99
2022-08-05T04:20:19.907Z,99.99
2022-08-05T04:23:58.432Z,99.99
2022-08-05T04:26:33.495Z,99.99
2022-08-05T04:29:41.461Z,99.99
2022-08-05T04:32:49.375Z,99.99
2022-08-05T04:36:15.864Z,99.99
2022-08-05T04:39:02.923Z,99.99
2022-08-05T04:42:11.287Z,99.99
2022-08-05T04:45:23.075Z,99.99
2022-08-05T04:48:28.073Z,99.99
2022-08-05T04:51:25.786Z,99.99
2022-08-05T04:54:27.584Z,99.99
2022-08-05T04:57:37.135Z,99.99
2022-08-05T05:00:45.625Z,99.99
2022-08-05T05:03:47.988Z,99.99
2022-08-05T05:06:57.598Z,99.99
2022-08-05T05:10:06.349Z,99.99
2022-08-05T05:13:14.282Z,99.99
2022-08-05T05:16:22.006Z,99.99
2022-08-05T05:19:26.771Z,99.99
2022-08-05T05:22:31.965Z,99.99
2022-08-05T05:25:41.051Z,99.99
2022-08-05T05:28:49.018Z,99.99
2022-08-05T05:31:56.964Z,99.99
2022-08-05T05:35:04.480Z,99.99
2022-08-05T05:38:14.450Z,99.99
2022-08-05T05:41:22.421Z,99.99
2022-08-05T05:44:36.699Z,99.99
2022-08-05T05:48:06.535Z,99.99
2022-08-05T05:50:41.124Z,99.99
2022-08-05T05:53:45.906Z,99.99
2022-08-05T05:56:47.303Z,99.99
2022-08-05T05:59:55.717Z,99.99
2022-08-05T06:03:40.691Z,99.99
2022-08-05T06:06:09.927Z,99.99
2022-08-05T06:09:24.818Z,99.99
2022-08-05T06:12:22.999Z,99.99
2022-08-05T06:15:25.502Z,99.99
2022-08-05T06:18:31.768Z,99.99
2022-08-05T06:21:36.078Z,99.99
2022-08-05T06:24:34.792Z,99.99
2022-08-05T06:28:12.093Z,99.99
2022-08-05T06:30:47.829Z,99.99
2022-08-05T06:34:05.986Z,99.99
2022-08-05T06:37:01.850Z,99.99
2022-08-05T06:40:10.072Z,99.99
2022-08-05T06:43:59.826Z,99.99
2022-08-05T06:46:23.353Z,99.99
2022-08-05T06:49:59.877Z,99.99
2022-08-05T06:52:38.106Z,99.99
2022-08-05T06:55:37.438Z,99.99
2022-08-05T06:58:46.814Z,99.99
2022-08-05T07:01:54.882Z,99.99
2022-08-05T07:05:03.205Z,99.99
2022-08-05T07:08:10.955Z,99.99
2022-08-05T07:11:22.408Z,99.99
2022-08-05T07:14:29.505Z,99.99
2022-08-05T07:17:59.332Z,99.99
2022-08-05T07:20:37.010Z,99.99
2022-08-05T07:23:36.044Z,99.99
2022-08-05T07:26:37.665Z,99.99
2022-08-05T07:30:23.911Z,99.99
2022-08-05T07:32:51.033Z,99.99
2022-08-05T07:36:02.809Z,99.99
2022-08-05T07:38:56.901Z,99.99
2022-08-05T07:42:13.932Z,99.99
2022-08-05T07:45:10.364Z,99.99
2022-08-05T07:49:01.615Z,99.99
2022-08-05T07:51:36.209Z,99.99
2022-08-05T07:54:30.749Z,99.99
2022-08-05T07:57:52.294Z,99.99
2022-08-05T08:00:36.379Z,99.99
2022-08-05T08:03:45.074Z,99.99
2022-08-05T08:06:52.826Z,99.99
2022-08-05T08:10:01.016Z,99.99
2022-08-05T08:13:09.396Z,99.99
2022-08-05T08:16:34.906Z,99.63
2022-08-05T08:20:21.051Z,99.99
2022-08-05T08:22:30.998Z,99.99
2022-08-05T08:25:59.809Z,99.99
2022-08-05T08:29:02.053Z,98.88
2022-08-05T08:31:51.304Z,98.68
2022-08-05T08:34:58.877Z,98.49
2022-08-05T08:38:07.575Z,98.68
2022-08-05T08:41:16.128Z,98.58
2022-08-05T08:45:19.144Z,98.54
2022-08-05T08:48:06.233Z,98.94
2022-08-05T08:51:03.722Z,98.64
2022-08-05T08:53:45.002Z,96.44
2022-08-05T08:56:53.855Z,97.59
2022-08-05T08:59:53.674Z,97.85
2022-08-05T09:03:04.166Z,95.89
2022-08-05T09:06:16.987Z,96.70
2022-08-05T09:09:16.508Z,96.25
2022-08-05T09:12:30.142Z,94.26
2022-08-05T09:15:27.390Z,91.60
2022-08-05T09:18:27.641Z,93.10
2022-08-05T09:22:21.973Z,94.20
2022-08-05T09:24:42.533Z,94.20
2022-08-05T09:28:03.800Z,94.84
2022-08-05T09:30:56.093Z,93.15
2022-08-05T09:34:03.949Z,95.50
2022-08-05T09:37:15.287Z,95.51
2022-08-05T09:40:13.565Z,92.02
2022-08-05T09:43:21.510Z,92.66
2022-08-05T09:46:30.129Z,92.29
2022-08-05T09:49:40.416Z,93.99
2022-08-05T09:52:45.233Z,94.29
2022-08-05T09:55:56.749Z,92.44
2022-08-05T09:58:56.737Z,93.65
2022-08-05T10:02:04.727Z,93.50
2022-08-05T10:05:13.231Z,91.30
2022-08-05T10:08:37.784Z,92.40
2022-08-05T10:11:29.647Z,92.80
2022-08-05T10:14:32.252Z,90.99
2022-08-05T10:17:42.403Z,93.04
2022-08-05T10:20:41.846Z,93.84
2022-08-05T10:23:59.772Z,94.28
2022-08-05T10:26:55.444Z,93.82
2022-08-05T10:30:41.423Z,94.93
2022-08-05T10:33:03.020Z,95.43
2022-08-05T10:36:11.589Z,94.23
2022-08-05T10:39:24.349Z,95.23
2022-08-05T10:42:32.393Z,94.23
2022-08-05T10:45:42.198Z,95.03
2022-08-05T10:48:39.528Z,95.62
2022-08-05T10:51:48.539Z,94.27
2022-08-05T10:54:46.906Z,94.97
2022-08-05T10:57:51.273Z,93.97
2022-08-05T11:00:55.086Z,93.31
2022-08-05T11:03:56.001Z,95.17
2022-08-05T11:07:04.322Z,94.47
2022-08-05T11:10:12.353Z,93.52
2022-08-05T11:13:20.464Z,93.62
2022-08-05T11:16:33.625Z,91.92
2022-08-05T11:20:09.878Z,92.07
2022-08-05T11:22:36.626Z,93.12
2022-08-05T11:26:06.221Z,92.48
2022-08-05T11:28:49.945Z,91.74
2022-08-05T11:32:00.674Z,90.29
2022-08-05T11:35:09.134Z,90.79
2022-08-05T11:38:30.134Z,91.19
2022-08-05T11:41:56.506Z,88.29
2022-08-05T11:44:40.298Z,90.99
2022-08-05T11:47:49.882Z,90.49
2022-08-05T11:50:34.177Z,89.78
2022-08-05T11:53:42.231Z,90.12
2022-08-05T11:56:52.095Z,90.86
2022-08-05T12:00:00.189Z,92.51
2022-08-05T12:03:08.270Z,92.21
2022-08-05T12:06:16.152Z,92.15
2022-08-05T12:09:24.726Z,92.70
2022-08-05T12:12:30.176Z,92.40
2022-08-05T12:15:40.336Z,92.40
2022-08-05T12:18:53.090Z,91.44
2022-08-05T12:21:50.200Z,92.54
2022-08-05T12:24:58.786Z,90.82
2022-08-05T12:28:06.949Z,92.11
2022-08-05T12:31:23.744Z,93.12
2022-08-05T12:34:23.486Z,90.91
2022-08-05T12:37:21.759Z,90.11
2022-08-05T12:40:30.434Z,88.79
2022-08-05T12:43:38.905Z,89.06
2022-08-05T12:46:47.096Z,86.18
2022-08-05T12:50:04.782Z,85.14
2022-08-05T12:52:54.296Z,84.37
2022-08-05T12:55:55.210Z,87.39
2022-08-05T12:59:06.827Z,86.44
2022-08-05T13:02:09.890Z,84.88
2022-08-05T13:05:17.984Z,84.27
2022-08-05T13:08:28.271Z,85.17
2022-08-05T13:12:02.751Z,84.27
2022-08-05T13:14:41.153Z,86.18
2022-08-05T13:17:50.587Z,84.88
2022-08-05T13:20:59.206Z,85.58
2022-08-05T13:24:08.775Z,85.88
2022-08-05T13:27:23.091Z,87.99
2022-08-05T13:30:34.757Z,86.28
2022-08-05T13:34:22.727Z,87.08
2022-08-05T13:36:33.389Z,88.35
2022-08-05T13:40:15.808Z,86.80
2022-08-05T13:42:47.108Z,85.14
2022-08-05T13:45:55.795Z,87.65
2022-08-05T13:49:04.702Z,88.45
2022-08-05T13:52:13.261Z,87.65
2022-08-05T13:55:41.125Z,86.24
2022-08-05T13:58:30.753Z,88.85
2022-08-05T14:01:36.405Z,88.05
2022-08-05T14:04:34.393Z,88.51
2022-08-05T14:08:00.276Z,88.07
2022-08-05T14:10:48.485Z,87.02
2022-08-05T14:13:57.801Z,86.16
2022-08-05T14:16:09.326Z,86.16
2022-08-05T14:18:30.467Z,85.66
2022-08-05T14:22:08.878Z,86.30
2022-08-05T14:24:45.261Z,88.77
2022-08-05T14:27:55.347Z,86.26
2022-08-05T14:31:03.393Z,86.76
2022-08-05T14:34:11.916Z,85.25
2022-08-05T14:37:08.781Z,86.82
2022-08-05T14:40:11.085Z,86.32
2022-08-05T14:43:11.533Z,81.60
2022-08-05T14:46:22.257Z,80.13
2022-08-05T14:49:56.424Z,80.54
2022-08-05T14:52:52.309Z,82.60
2022-08-05T14:55:42.471Z,82.40
2022-08-05T14:58:53.237Z,81.50
2022-08-05T15:02:01.329Z,81.36
2022-08-05T15:05:13.608Z,79.90
2022-08-05T15:08:37.994Z,80.06
2022-08-05T15:11:16.886Z,79.05
2022-08-05T15:14:34.750Z,81.16
2022-08-05T15:17:46.920Z,81.62
2022-08-05T15:20:36.187Z,81.93
2022-08-05T15:23:44.332Z,80.96
2022-08-05T15:26:53.366Z,82.97
2022-08-05T15:29:53.049Z,81.96
2022-08-05T15:32:54.621Z,83.43
2022-08-05T15:36:04.017Z,82.43
2022-08-05T15:40:41.396Z,82.23
2022-08-05T15:42:56.682Z,81.32
2022-08-05T15:45:38.197Z,79.36
2022-08-05T15:48:29.706Z,78.29
2022-08-05T15:52:10.083Z,78.29
2022-08-05T15:54:43.592Z,79.66
2022-08-05T15:57:52.140Z,77.95
2022-08-05T16:01:17.862Z,78.15
2022-08-05T16:04:06.184Z,79.36
2022-08-05T16:07:10.709Z,78.92
2022-08-05T16:10:11.504Z,80.22
2022-08-05T16:13:09.308Z,78.61
2022-08-05T16:16:21.266Z,79.02
2022-08-05T16:20:03.241Z,78.45
2022-08-05T16:22:34.290Z,78.35
2022-08-05T16:25:33.845Z,78.35
2022-08-05T16:28:42.876Z,77.45
2022-08-05T16:31:57.200Z,78.15
2022-08-05T16:34:56.604Z,79.66
2022-08-05T16:38:17.004Z,79.32
2022-08-05T16:42:11.975Z,76.98
2022-08-05T16:44:16.428Z,78.84
2022-08-05T16:47:28.908Z,78.24
2022-08-05T16:50:30.291Z,74.60
2022-08-05T16:54:02.907Z,79.80
2022-08-05T16:56:44.261Z,76.10
2022-08-05T17:00:03.018Z,75.70
2022-08-05T17:02:57.840Z,75.90
2022-08-05T17:06:05.512Z,76.60
2022-08-05T17:09:13.940Z,78.94
2022-08-05T17:12:50.540Z,79.04
2022-08-05T17:15:29.473Z,77.87
2022-08-05T17:18:33.770Z,78.78
2022-08-05T17:21:42.902Z,78.61
2022-08-05T17:24:57.957Z,79.92
2022-08-05T17:27:53.899Z,78.81
2022-08-05T17:31:08.300Z,78.85
2022-08-05T17:34:05.788Z,79.46
2022-08-05T17:37:40.340Z,79.66
2022-08-05T17:40:22.264Z,79.86
2022-08-05T17:43:50.378Z,79.39
2022-08-05T17:46:36.630Z,79.80
2022-08-05T17:49:59.738Z,79.60
2022-08-05T17:52:53.391Z,78.99
2022-08-05T17:55:52.704Z,80.40
2022-08-05T17:59:00.816Z,79.99
2022-08-05T18:02:11.113Z,79.46
2022-08-05T18:05:19.580Z,79.86
2022-08-05T18:08:27.369Z,79.96
2022-08-05T18:11:36.002Z,79.86
2022-08-05T18:14:44.715Z,80.19
2022-08-05T18:17:59.194Z,81.80
2022-08-05T18:20:58.794Z,80.70
2022-08-05T18:23:58.800Z,80.94
2022-08-05T18:27:06.815Z,81.54
2022-08-05T18:30:10.957Z,80.98
2022-08-05T18:33:22.642Z,83.59
2022-08-05T18:36:31.692Z,83.49
2022-08-05T18:40:31.024Z,82.98
2022-08-05T18:42:45.369Z,84.09
2022-08-05T18:45:54.283Z,82.98
2022-08-05T18:49:04.191Z,83.18
2022-08-05T18:52:14.983Z,83.18
2022-08-05T18:55:23.015Z,83.39
2022-08-05T18:58:31.245Z,82.89
2022-08-05T19:01:48.245Z,83.23
2022-08-05T19:05:01.710Z,84.03
2022-08-05T19:07:46.505Z,84.43
2022-08-05T19:10:55.251Z,84.97
2022-08-05T19:14:15.258Z,85.92
2022-08-05T19:17:09.660Z,85.36
2022-08-05T19:20:09.695Z,85.46
2022-08-05T19:23:22.564Z,81.47
2022-08-05T19:26:23.776Z,75.13
2022-08-05T19:29:36.057Z,75.13
2022-08-05T19:32:34.207Z,74.55
2022-08-05T19:35:56.653Z,70.73
2022-08-05T19:38:48.123Z,69.72
2022-08-05T19:42:05.784Z,68.44
2022-08-05T19:45:01.761Z,69.45
2022-08-05T19:48:14.697Z,67.33
2022-08-05T19:51:11.894Z,68.14
2022-08-05T19:54:26.667Z,67.07
2022-08-05T19:57:47.551Z,66.76
2022-08-05T20:00:28.435Z,66.86
2022-08-05T20:03:40.487Z,67.27
2022-08-05T20:06:46.486Z,68.30
2022-08-05T20:09:54.528Z,68.30
2022-08-05T20:12:49.997Z,68.10
2022-08-05T20:15:58.078Z,66.12
2022-08-05T20:19:07.954Z,64.81
2022-08-05T20:22:15.759Z,65.31
2022-08-05T20:25:24.795Z,66.42
2022-08-05T20:28:30.165Z,65.44
2022-08-05T20:31:52.240Z,67.56
2022-08-05T20:34:42.668Z,67.46
2022-08-05T20:38:07.958Z,65.27
2022-08-05T20:40:56.470Z,66.38
2022-08-05T20:44:19.328Z,65.78
2022-08-05T20:47:09.431Z,66.99
2022-08-05T20:50:18.639Z,67.60
2022-08-05T20:53:36.792Z,67.72
2022-08-05T20:56:40.200Z,68.43
2022-08-05T21:00:10.439Z,68.54
2022-08-05T21:02:51.584Z,70.05
2022-08-05T21:05:54.576Z,69.27
2022-08-05T21:08:53.659Z,68.77
2022-08-05T21:12:10.395Z,70.29
2022-08-05T21:15:11.303Z,71.84
2022-08-05T21:18:20.976Z,71.44
2022-08-05T21:21:24.389Z,70.76
2022-08-05T21:24:25.052Z,70.86
2022-08-05T21:27:38.628Z,71.77
2022-08-05T21:30:43.308Z,72.99
2022-08-05T21:33:53.227Z,74.24
2022-08-05T21:37:04.336Z,74.64
2022-08-05T21:40:16.610Z,76.40
2022-08-05T21:43:24.059Z,78.22
2022-08-05T21:46:22.886Z,74.81
2022-08-05T21:49:59.450Z,76.03
2022-08-05T21:52:31.999Z,77.95
2022-08-05T21:56:04.269Z,76.57
2022-08-05T21:58:42.238Z,77.22
2022-08-05T22:01:45.734Z,78.94
2022-08-05T22:04:53.814Z,78.23
2022-08-05T22:08:02.425Z,78.94
2022-08-05T22:11:10.815Z,80.36
2022-08-05T22:14:33.067Z,79.49
2022-08-05T22:17:17.600Z,80.91
2022-08-05T22:20:25.442Z,80.33
2022-08-05T22:24:02.979Z,82.17
2022-08-05T22:26:38.720Z,82.26
2022-08-05T22:29:46.821Z,83.08
2022-08-05T22:32:55.038Z,82.20
2022-08-05T22:36:03.301Z,82.31
2022-08-05T22:39:13.485Z,83.93
2022-08-05T22:42:26.213Z,83.42
2022-08-05T22:45:24.776Z,84.74
2022-08-05T22:48:32.919Z,83.87
2022-08-05T22:52:07.670Z,84.17
2022-08-05T22:54:48.946Z,84.48
2022-08-05T22:57:46.697Z,85.19
2022-08-05T23:00:57.046Z,85.80
2022-08-05T23:04:05.566Z,86.51
2022-08-05T23:07:15.271Z,86.61
2022-08-05T23:10:23.586Z,87.53
2022-08-05T23:13:32.258Z,86.71
2022-08-05T23:16:44.021Z,86.61
2022-08-05T23:19:56.224Z,87.26
2022-08-05T23:22:55.792Z,87.77
2022-08-05T23:26:03.954Z,87.41
2022-08-05T23:29:11.785Z,87.10
2022-08-05T23:32:13.106Z,88.22
2022-08-05T23:35:21.977Z,88.63
2022-08-05T23:38:29.899Z,87.81
2022-08-05T23:41:41.122Z,88.12
2022-08-05T23:44:43.227Z,88.77
2022-08-05T23:47:53.620Z,89.18
2022-08-05T23:50:55.659Z,88.77
2022-08-05T23:54:03.692Z,89.34
2022-08-05T23:57:11.707Z,89.64
